Portada
METAR-TAF:

METAR-TAF

Aeropuertos :

Bou Saâda, Argelia

latitud: 35-20N, longitud: 004-12E, altitud: 461 m

Observación

El informe se hizo hace 7 horas y 12 minutos, a las 18:00 UTC
Viento 8 kt del este-sureste
Temperatura 15°C
Humedad 41%
Presión 1021 hPa
Visibilidad: 7000 m
Escasas nubes a una altura de 2600 ft
Cielo nuboso a una altura de 10000 ft

METAR: DAAD 011800Z 12008KT 7000 FEW026 BKN100 15/02 Q1021

Hora: 02:12 (01:12 UTC)

Pronóstico

El informe se hizo hace 8 horas y 12 minutos, a las 17:00 UTC
Pronóstico válido del 01 a las 18 UTC al 02 a las 03 UTC
Viento 8 kt del este
Visibilidad: 8000 m
Escasas nubes a una altura de 2600 ft
Nubes dispersas a una altura de 10000 ft
Probabilidad 30% :
Temporalmente
del 01 a las 18 UTC al 01 a las 20 UTC
Escasas nubes a una altura de 2600 ft, Cumulus congestus.

TAF: DAAD 011700Z 0118/0203 08008KT 8000 FEW026 SCT100 PROB30 TEMPO 0118/0120 FEW026TCU

Observaciones y pronósticos meteorológicos de más de 4000 aeropuertos (mensajes METAR y TAF).

Los puntos amarillos y rojos representan las estaciones disponibles.

Ponga el ratón en el punto deseado para ver el nombre de la estación.

Haga clic para ver las observaciones y los pronósticos meteorológicos.

Para cambiar el mapa : haga clic en los botones verdes con una cruz de color negro para hacer un zoom, en el botón verde con un guión para alejar o en las flechas verdes para mapas adyacentes.


METAR-TAF: